sensor_id;sensor_type;location;lat;lon;timestamp;P1;durP1;ratioP1;P2;durP2;ratioP2
18172;SDS011;9211;48.818;9.312;2023-07-13T00:00:48;2.70;;;1.20;;
18172;SDS011;9211;48.818;9.312;2023-07-13T00:03:16;2.17;;;1.03;;
18172;SDS011;9211;48.818;9.312;2023-07-13T00:05:43;6.65;;;1.10;;
18172;SDS011;9211;48.818;9.312;2023-07-13T00:08:11;3.55;;;1.00;;
18172;SDS011;9211;48.818;9.312;2023-07-13T00:10:41;7.35;;;1.15;;
18172;SDS011;9211;48.818;9.312;2023-07-13T00:13:08;4.22;;;0.90;;
18172;SDS011;9211;48.818;9.312;2023-07-13T00:15:35;4.50;;;1.00;;
18172;SDS011;9211;48.818;9.312;2023-07-13T00:18:02;2.63;;;1.08;;
18172;SDS011;9211;48.818;9.312;2023-07-13T00:20:31;3.92;;;1.05;;
18172;SDS011;9211;48.818;9.312;2023-07-13T00:22:58;6.70;;;1.00;;
18172;SDS011;9211;48.818;9.312;2023-07-13T00:25:25;5.50;;;1.20;;
18172;SDS011;9211;48.818;9.312;2023-07-13T00:27:53;4.47;;;1.00;;
18172;SDS011;9211;48.818;9.312;2023-07-13T00:30:20;2.55;;;1.10;;
18172;SDS011;9211;48.818;9.312;2023-07-13T00:32:47;3.78;;;1.30;;
18172;SDS011;9211;48.818;9.312;2023-07-13T00:35:15;4.88;;;1.23;;
18172;SDS011;9211;48.818;9.312;2023-07-13T00:37:43;3.87;;;0.93;;
18172;SDS011;9211;48.818;9.312;2023-07-13T00:40:11;5.60;;;1.10;;
18172;SDS011;9211;48.818;9.312;2023-07-13T00:42:39;5.83;;;1.10;;
18172;SDS011;9211;48.818;9.312;2023-07-13T00:46:08;3.20;;;1.00;;
18172;SDS011;9211;48.818;9.312;2023-07-13T00:48:15;3.97;;;1.00;;
18172;SDS011;9211;48.818;9.312;2023-07-13T00:50:46;6.30;;;1.30;;
18172;SDS011;9211;48.818;9.312;2023-07-13T00:53:17;4.35;;;1.00;;
18172;SDS011;9211;48.818;9.312;2023-07-13T00:55:46;3.90;;;1.05;;
18172;SDS011;9211;48.818;9.312;2023-07-13T00:58:15;4.17;;;1.13;;
18172;SDS011;9211;48.818;9.312;2023-07-13T01:00:42;3.53;;;1.08;;
18172;SDS011;9211;48.818;9.312;2023-07-13T01:03:10;3.63;;;1.10;;
18172;SDS011;9211;48.818;9.312;2023-07-13T01:05:37;4.25;;;0.98;;
18172;SDS011;9211;48.818;9.312;2023-07-13T01:08:04;3.42;;;1.10;;
18172;SDS011;9211;48.818;9.312;2023-07-13T01:10:34;6.10;;;1.15;;
18172;SDS011;9211;48.818;9.312;2023-07-13T01:13:04;5.18;;;1.15;;
18172;SDS011;9211;48.818;9.312;2023-07-13T01:15:35;4.28;;;1.00;;
18172;SDS011;9211;48.818;9.312;2023-07-13T01:18:04;4.30;;;1.10;;
18172;SDS011;9211;48.818;9.312;2023-07-13T01:20:33;3.45;;;1.17;;
18172;SDS011;9211;48.818;9.312;2023-07-13T01:23:04;5.45;;;1.27;;
18172;SDS011;9211;48.818;9.312;2023-07-13T01:25:32;4.35;;;0.95;;
18172;SDS011;9211;48.818;9.312;2023-07-13T01:28:02;4.57;;;1.05;;
18172;SDS011;9211;48.818;9.312;2023-07-13T01:30:30;2.70;;;0.97;;
18172;SDS011;9211;48.818;9.312;2023-07-13T01:32:57;4.60;;;1.20;;
18172;SDS011;9211;48.818;9.312;2023-07-13T01:35:25;4.82;;;1.13;;
18172;SDS011;9211;48.818;9.312;2023-07-13T01:37:52;5.68;;;1.13;;
18172;SDS011;9211;48.818;9.312;2023-07-13T01:40:21;2.67;;;1.10;;
18172;SDS011;9211;48.818;9.312;2023-07-13T01:42:48;3.92;;;1.17;;
18172;SDS011;9211;48.818;9.312;2023-07-13T01:45:18;3.90;;;1.33;;
18172;SDS011;9211;48.818;9.312;2023-07-13T01:47:46;6.22;;;1.60;;
18172;SDS011;9211;48.818;9.312;2023-07-13T01:50:13;8.40;;;1.70;;
18172;SDS011;9211;48.818;9.312;2023-07-13T01:52:40;6.55;;;1.30;;
18172;SDS011;9211;48.818;9.312;2023-07-13T01:55:08;3.60;;;1.00;;
18172;SDS011;9211;48.818;9.312;2023-07-13T01:57:36;6.10;;;1.20;;
18172;SDS011;9211;48.818;9.312;2023-07-13T02:00:04;3.80;;;1.33;;
18172;SDS011;9211;48.818;9.312;2023-07-13T02:02:46;3.90;;;1.20;;
18172;SDS011;9211;48.818;9.312;2023-07-13T02:05:14;4.07;;;1.10;;
18172;SDS011;9211;48.818;9.312;2023-07-13T02:07:41;3.03;;;0.93;;
18172;SDS011;9211;48.818;9.312;2023-07-13T02:10:09;5.57;;;1.02;;
18172;SDS011;9211;48.818;9.312;2023-07-13T02:12:38;4.45;;;1.10;;
18172;SDS011;9211;48.818;9.312;2023-07-13T02:15:09;3.08;;;1.10;;
18172;SDS011;9211;48.818;9.312;2023-07-13T02:17:36;5.03;;;1.30;;
18172;SDS011;9211;48.818;9.312;2023-07-13T02:20:04;8.15;;;1.33;;
18172;SDS011;9211;48.818;9.312;2023-07-13T02:22:32;2.90;;;1.02;;
18172;SDS011;9211;48.818;9.312;2023-07-13T02:24:59;4.78;;;1.20;;
18172;SDS011;9211;48.818;9.312;2023-07-13T02:27:26;4.72;;;1.30;;
18172;SDS011;9211;48.818;9.312;2023-07-13T02:29:55;5.70;;;1.38;;
18172;SDS011;9211;48.818;9.312;2023-07-13T02:32:22;3.95;;;1.52;;
18172;SDS011;9211;48.818;9.312;2023-07-13T02:34:50;5.13;;;1.30;;
18172;SDS011;9211;48.818;9.312;2023-07-13T02:37:18;7.45;;;1.40;;
18172;SDS011;9211;48.818;9.312;2023-07-13T02:39:46;5.03;;;1.30;;
18172;SDS011;9211;48.818;9.312;2023-07-13T02:42:13;3.80;;;1.40;;
18172;SDS011;9211;48.818;9.312;2023-07-13T02:44:42;2.92;;;1.30;;
18172;SDS011;9211;48.818;9.312;2023-07-13T02:47:10;4.88;;;1.30;;
18172;SDS011;9211;48.818;9.312;2023-07-13T02:49:38;4.63;;;1.38;;
18172;SDS011;9211;48.818;9.312;2023-07-13T02:52:05;4.73;;;1.37;;
18172;SDS011;9211;48.818;9.312;2023-07-13T02:54:33;5.15;;;1.25;;
18172;SDS011;9211;48.818;9.312;2023-07-13T02:57:00;5.68;;;1.30;;
18172;SDS011;9211;48.818;9.312;2023-07-13T02:59:27;4.00;;;1.40;;
18172;SDS011;9211;48.818;9.312;2023-07-13T03:01:55;6.77;;;1.40;;
18172;SDS011;9211;48.818;9.312;2023-07-13T03:04:23;5.72;;;1.35;;
18172;SDS011;9211;48.818;9.312;2023-07-13T03:06:50;4.63;;;1.58;;
18172;SDS011;9211;48.818;9.312;2023-07-13T03:09:17;4.28;;;1.40;;
18172;SDS011;9211;48.818;9.312;2023-07-13T03:11:51;5.43;;;1.40;;
18172;SDS011;9211;48.818;9.312;2023-07-13T03:14:24;3.50;;;1.30;;
18172;SDS011;9211;48.818;9.312;2023-07-13T03:16:51;5.78;;;1.50;;
18172;SDS011;9211;48.818;9.312;2023-07-13T03:19:23;8.77;;;1.67;;
18172;SDS011;9211;48.818;9.312;2023-07-13T03:21:51;4.00;;;1.50;;
18172;SDS011;9211;48.818;9.312;2023-07-13T03:24:18;4.27;;;1.70;;
18172;SDS011;9211;48.818;9.312;2023-07-13T03:26:46;4.13;;;1.50;;
18172;SDS011;9211;48.818;9.312;2023-07-13T03:29:12;4.32;;;1.55;;
18172;SDS011;9211;48.818;9.312;2023-07-13T03:31:39;4.45;;;1.50;;
18172;SDS011;9211;48.818;9.312;2023-07-13T03:34:06;4.50;;;1.50;;
18172;SDS011;9211;48.818;9.312;2023-07-13T03:36:36;5.50;;;1.60;;
18172;SDS011;9211;48.818;9.312;2023-07-13T03:39:08;5.30;;;1.63;;
18172;SDS011;9211;48.818;9.312;2023-07-13T03:42:01;3.27;;;1.23;;
18172;SDS011;9211;48.818;9.312;2023-07-13T03:44:28;4.03;;;1.70;;
18172;SDS011;9211;48.818;9.312;2023-07-13T03:46:56;6.40;;;1.60;;
18172;SDS011;9211;48.818;9.312;2023-07-13T03:49:23;5.13;;;1.60;;
18172;SDS011;9211;48.818;9.312;2023-07-13T03:51:52;5.53;;;1.70;;
18172;SDS011;9211;48.818;9.312;2023-07-13T03:54:19;7.10;;;1.73;;
18172;SDS011;9211;48.818;9.312;2023-07-13T03:56:46;4.40;;;1.75;;
18172;SDS011;9211;48.818;9.312;2023-07-13T03:59:14;4.40;;;1.50;;
18172;SDS011;9211;48.818;9.312;2023-07-13T04:01:43;5.85;;;1.55;;
18172;SDS011;9211;48.818;9.312;2023-07-13T04:04:11;6.55;;;1.50;;
18172;SDS011;9211;48.818;9.312;2023-07-13T04:06:39;6.65;;;1.50;;
18172;SDS011;9211;48.818;9.312;2023-07-13T04:09:07;6.38;;;1.67;;
18172;SDS011;9211;48.818;9.312;2023-07-13T04:11:35;4.20;;;1.42;;
18172;SDS011;9211;48.818;9.312;2023-07-13T04:14:02;7.85;;;1.90;;
18172;SDS011;9211;48.818;9.312;2023-07-13T04:16:30;7.30;;;1.80;;
18172;SDS011;9211;48.818;9.312;2023-07-13T04:18:57;7.30;;;1.90;;
18172;SDS011;9211;48.818;9.312;2023-07-13T04:21:25;8.45;;;2.05;;
18172;SDS011;9211;48.818;9.312;2023-07-13T04:23:53;5.53;;;1.83;;
18172;SDS011;9211;48.818;9.312;2023-07-13T04:26:21;4.13;;;1.87;;
18172;SDS011;9211;48.818;9.312;2023-07-13T04:28:49;8.68;;;2.00;;
18172;SDS011;9211;48.818;9.312;2023-07-13T04:31:16;7.00;;;1.90;;
18172;SDS011;9211;48.818;9.312;2023-07-13T04:33:43;7.28;;;1.80;;
18172;SDS011;9211;48.818;9.312;2023-07-13T04:36:10;8.65;;;1.95;;
18172;SDS011;9211;48.818;9.312;2023-07-13T04:38:37;7.05;;;1.70;;
18172;SDS011;9211;48.818;9.312;2023-07-13T04:41:06;5.03;;;1.90;;
18172;SDS011;9211;48.818;9.312;2023-07-13T04:43:35;8.57;;;2.22;;
18172;SDS011;9211;48.818;9.312;2023-07-13T04:46:06;6.68;;;1.90;;
18172;SDS011;9211;48.818;9.312;2023-07-13T04:48:36;7.32;;;1.95;;
18172;SDS011;9211;48.818;9.312;2023-07-13T04:51:03;6.07;;;1.88;;
18172;SDS011;9211;48.818;9.312;2023-07-13T04:53:30;5.07;;;1.70;;
18172;SDS011;9211;48.818;9.312;2023-07-13T04:55:59;5.53;;;1.80;;
18172;SDS011;9211;48.818;9.312;2023-07-13T04:58:26;5.32;;;1.90;;
18172;SDS011;9211;48.818;9.312;2023-07-13T05:01:00;3.97;;;1.65;;
18172;SDS011;9211;48.818;9.312;2023-07-13T05:03:28;6.63;;;1.83;;
18172;SDS011;9211;48.818;9.312;2023-07-13T05:05:56;4.13;;;1.60;;
18172;SDS011;9211;48.818;9.312;2023-07-13T05:08:23;4.35;;;1.60;;
18172;SDS011;9211;48.818;9.312;2023-07-13T05:10:50;4.85;;;1.73;;
18172;SDS011;9211;48.818;9.312;2023-07-13T05:13:18;5.40;;;1.60;;
18172;SDS011;9211;48.818;9.312;2023-07-13T05:15:45;6.83;;;1.80;;
18172;SDS011;9211;48.818;9.312;2023-07-13T05:18:15;7.53;;;1.90;;
18172;SDS011;9211;48.818;9.312;2023-07-13T05:20:42;5.70;;;1.92;;
18172;SDS011;9211;48.818;9.312;2023-07-13T05:23:09;6.72;;;1.70;;
18172;SDS011;9211;48.818;9.312;2023-07-13T05:25:36;6.35;;;1.77;;
18172;SDS011;9211;48.818;9.312;2023-07-13T05:28:03;6.10;;;1.67;;
18172;SDS011;9211;48.818;9.312;2023-07-13T05:30:30;6.57;;;2.00;;
18172;SDS011;9211;48.818;9.312;2023-07-13T05:32:58;4.90;;;1.70;;
18172;SDS011;9211;48.818;9.312;2023-07-13T05:35:27;6.30;;;1.58;;
18172;SDS011;9211;48.818;9.312;2023-07-13T05:37:54;6.40;;;1.50;;
18172;SDS011;9211;48.818;9.312;2023-07-13T05:40:21;4.63;;;1.30;;
18172;SDS011;9211;48.818;9.312;2023-07-13T05:42:48;5.43;;;1.40;;
18172;SDS011;9211;48.818;9.312;2023-07-13T05:45:15;4.60;;;1.50;;
18172;SDS011;9211;48.818;9.312;2023-07-13T05:47:42;4.40;;;1.50;;
18172;SDS011;9211;48.818;9.312;2023-07-13T05:50:09;4.10;;;1.45;;
18172;SDS011;9211;48.818;9.312;2023-07-13T05:52:37;4.32;;;1.40;;
18172;SDS011;9211;48.818;9.312;2023-07-13T05:55:05;3.65;;;1.50;;
18172;SDS011;9211;48.818;9.312;2023-07-13T05:57:32;4.70;;;1.45;;
18172;SDS011;9211;48.818;9.312;2023-07-13T05:59:59;3.20;;;1.40;;
18172;SDS011;9211;48.818;9.312;2023-07-13T06:02:27;4.95;;;1.50;;
18172;SDS011;9211;48.818;9.312;2023-07-13T06:04:54;6.40;;;1.58;;
18172;SDS011;9211;48.818;9.312;2023-07-13T06:07:20;5.22;;;1.60;;
18172;SDS011;9211;48.818;9.312;2023-07-13T06:09:49;5.93;;;1.55;;
18172;SDS011;9211;48.818;9.312;2023-07-13T06:12:16;6.28;;;1.70;;
18172;SDS011;9211;48.818;9.312;2023-07-13T06:14:43;6.38;;;1.45;;
18172;SDS011;9211;48.818;9.312;2023-07-13T06:17:10;6.30;;;1.65;;
18172;SDS011;9211;48.818;9.312;2023-07-13T06:19:37;4.57;;;1.77;;
18172;SDS011;9211;48.818;9.312;2023-07-13T06:22:04;5.80;;;1.60;;
18172;SDS011;9211;48.818;9.312;2023-07-13T06:24:31;7.35;;;1.73;;
18172;SDS011;9211;48.818;9.312;2023-07-13T06:27:00;4.33;;;1.40;;
18172;SDS011;9211;48.818;9.312;2023-07-13T06:29:27;6.53;;;1.70;;
18172;SDS011;9211;48.818;9.312;2023-07-13T06:31:54;4.18;;;1.40;;
18172;SDS011;9211;48.818;9.312;2023-07-13T06:34:20;7.13;;;1.60;;
18172;SDS011;9211;48.818;9.312;2023-07-13T06:36:47;5.13;;;1.52;;
18172;SDS011;9211;48.818;9.312;2023-07-13T06:39:14;6.70;;;1.60;;
18172;SDS011;9211;48.818;9.312;2023-07-13T06:41:41;3.75;;;1.45;;
18172;SDS011;9211;48.818;9.312;2023-07-13T06:44:14;4.43;;;1.30;;
18172;SDS011;9211;48.818;9.312;2023-07-13T06:46:41;4.03;;;1.50;;
18172;SDS011;9211;48.818;9.312;2023-07-13T06:49:08;6.13;;;1.40;;
18172;SDS011;9211;48.818;9.312;2023-07-13T06:51:35;4.13;;;1.38;;
18172;SDS011;9211;48.818;9.312;2023-07-13T06:54:02;4.05;;;1.40;;
18172;SDS011;9211;48.818;9.312;2023-07-13T06:56:30;7.90;;;1.70;;
18172;SDS011;9211;48.818;9.312;2023-07-13T06:58:57;5.47;;;1.30;;
18172;SDS011;9211;48.818;9.312;2023-07-13T07:01:25;3.22;;;1.40;;
18172;SDS011;9211;48.818;9.312;2023-07-13T07:03:52;4.43;;;1.50;;
18172;SDS011;9211;48.818;9.312;2023-07-13T07:06:20;4.43;;;1.40;;
18172;SDS011;9211;48.818;9.312;2023-07-13T07:08:48;5.65;;;1.45;;
18172;SDS011;9211;48.818;9.312;2023-07-13T07:11:17;5.38;;;1.40;;
18172;SDS011;9211;48.818;9.312;2023-07-13T07:13:45;5.50;;;1.48;;
18172;SDS011;9211;48.818;9.312;2023-07-13T07:16:11;5.43;;;1.30;;
18172;SDS011;9211;48.818;9.312;2023-07-13T07:18:40;3.00;;;1.20;;
18172;SDS011;9211;48.818;9.312;2023-07-13T07:21:07;4.70;;;1.10;;
18172;SDS011;9211;48.818;9.312;2023-07-13T07:23:34;5.28;;;1.50;;
18172;SDS011;9211;48.818;9.312;2023-07-13T07:26:01;4.75;;;1.30;;
18172;SDS011;9211;48.818;9.312;2023-07-13T07:28:28;4.38;;;1.23;;
18172;SDS011;9211;48.818;9.312;2023-07-13T07:30:56;4.03;;;1.25;;
18172;SDS011;9211;48.818;9.312;2023-07-13T07:33:24;3.80;;;1.30;;
18172;SDS011;9211;48.818;9.312;2023-07-13T07:35:52;4.13;;;1.23;;
18172;SDS011;9211;48.818;9.312;2023-07-13T07:38:19;3.38;;;1.10;;
18172;SDS011;9211;48.818;9.312;2023-07-13T07:40:46;3.63;;;1.10;;
18172;SDS011;9211;48.818;9.312;2023-07-13T07:43:13;4.68;;;1.10;;
18172;SDS011;9211;48.818;9.312;2023-07-13T07:45:40;4.45;;;1.20;;
18172;SDS011;9211;48.818;9.312;2023-07-13T07:48:07;4.05;;;1.15;;
18172;SDS011;9211;48.818;9.312;2023-07-13T07:50:34;3.58;;;1.30;;
18172;SDS011;9211;48.818;9.312;2023-07-13T07:53:03;4.22;;;1.10;;
18172;SDS011;9211;48.818;9.312;2023-07-13T07:55:32;4.10;;;1.15;;
18172;SDS011;9211;48.818;9.312;2023-07-13T07:58:00;3.80;;;1.10;;
18172;SDS011;9211;48.818;9.312;2023-07-13T08:00:27;4.63;;;1.30;;
18172;SDS011;9211;48.818;9.312;2023-07-13T08:02:56;4.53;;;1.20;;
18172;SDS011;9211;48.818;9.312;2023-07-13T08:05:23;3.83;;;1.00;;
18172;SDS011;9211;48.818;9.312;2023-07-13T08:07:50;3.40;;;1.17;;
18172;SDS011;9211;48.818;9.312;2023-07-13T08:10:18;3.53;;;1.17;;
18172;SDS011;9211;48.818;9.312;2023-07-13T08:12:45;4.03;;;1.23;;
18172;SDS011;9211;48.818;9.312;2023-07-13T08:15:13;3.58;;;1.40;;
18172;SDS011;9211;48.818;9.312;2023-07-13T08:17:41;5.35;;;1.10;;
18172;SDS011;9211;48.818;9.312;2023-07-13T08:20:09;5.03;;;1.00;;
18172;SDS011;9211;48.818;9.312;2023-07-13T08:22:36;3.28;;;1.35;;
18172;SDS011;9211;48.818;9.312;2023-07-13T08:25:03;5.20;;;1.10;;
18172;SDS011;9211;48.818;9.312;2023-07-13T08:27:32;2.92;;;1.10;;
18172;SDS011;9211;48.818;9.312;2023-07-13T08:29:59;3.53;;;1.20;;
18172;SDS011;9211;48.818;9.312;2023-07-13T08:32:27;3.80;;;0.88;;
18172;SDS011;9211;48.818;9.312;2023-07-13T08:34:54;3.83;;;1.02;;
18172;SDS011;9211;48.818;9.312;2023-07-13T08:37:21;4.65;;;1.10;;
18172;SDS011;9211;48.818;9.312;2023-07-13T08:39:48;4.03;;;1.08;;
18172;SDS011;9211;48.818;9.312;2023-07-13T08:42:21;4.88;;;1.00;;
18172;SDS011;9211;48.818;9.312;2023-07-13T08:44:57;6.85;;;1.25;;
18172;SDS011;9211;48.818;9.312;2023-07-13T08:47:34;2.80;;;0.90;;
18172;SDS011;9211;48.818;9.312;2023-07-13T08:50:04;3.30;;;1.10;;
18172;SDS011;9211;48.818;9.312;2023-07-13T08:52:43;6.03;;;1.17;;
18172;SDS011;9211;48.818;9.312;2023-07-13T08:55:13;3.42;;;0.90;;
18172;SDS011;9211;48.818;9.312;2023-07-13T08:57:43;7.03;;;1.30;;
18172;SDS011;9211;48.818;9.312;2023-07-13T09:00:16;4.50;;;1.10;;
18172;SDS011;9211;48.818;9.312;2023-07-13T09:02:45;3.28;;;0.90;;
18172;SDS011;9211;48.818;9.312;2023-07-13T09:05:17;4.53;;;1.00;;
18172;SDS011;9211;48.818;9.312;2023-07-13T09:08:00;3.83;;;1.58;;
18172;SDS011;9211;48.818;9.312;2023-07-13T09:10:37;3.20;;;1.00;;
18172;SDS011;9211;48.818;9.312;2023-07-13T09:13:13;3.40;;;1.20;;
18172;SDS011;9211;48.818;9.312;2023-07-13T09:15:50;3.70;;;1.20;;
18172;SDS011;9211;48.818;9.312;2023-07-13T09:18:19;3.78;;;1.00;;
18172;SDS011;9211;48.818;9.312;2023-07-13T09:20:51;7.45;;;1.30;;
18172;SDS011;9211;48.818;9.312;2023-07-13T09:23:22;4.90;;;1.10;;
18172;SDS011;9211;48.818;9.312;2023-07-13T09:25:51;5.57;;;1.35;;
18172;SDS011;9211;48.818;9.312;2023-07-13T09:28:24;5.82;;;1.17;;
18172;SDS011;9211;48.818;9.312;2023-07-13T09:30:55;4.85;;;1.10;;
18172;SDS011;9211;48.818;9.312;2023-07-13T09:33:26;5.33;;;1.20;;
18172;SDS011;9211;48.818;9.312;2023-07-13T09:35:54;2.73;;;1.00;;
18172;SDS011;9211;48.818;9.312;2023-07-13T09:38:22;3.15;;;1.00;;
18172;SDS011;9211;48.818;9.312;2023-07-13T09:40:59;3.42;;;1.17;;
18172;SDS011;9211;48.818;9.312;2023-07-13T09:43:34;6.57;;;1.25;;
18172;SDS011;9211;48.818;9.312;2023-07-13T09:46:03;4.10;;;1.10;;
18172;SDS011;9211;48.818;9.312;2023-07-13T09:48:33;5.13;;;1.20;;
18172;SDS011;9211;48.818;9.312;2023-07-13T09:51:06;3.95;;;1.08;;
18172;SDS011;9211;48.818;9.312;2023-07-13T09:53:39;3.10;;;1.20;;
18172;SDS011;9211;48.818;9.312;2023-07-13T09:56:18;7.30;;;1.20;;
18172;SDS011;9211;48.818;9.312;2023-07-13T09:58:52;4.10;;;1.20;;
18172;SDS011;9211;48.818;9.312;2023-07-13T10:01:34;6.00;;;1.38;;
18172;SDS011;9211;48.818;9.312;2023-07-13T10:04:03;4.10;;;1.17;;
18172;SDS011;9211;48.818;9.312;2023-07-13T10:06:38;8.38;;;1.35;;
18172;SDS011;9211;48.818;9.312;2023-07-13T10:09:07;5.47;;;1.30;;
18172;SDS011;9211;48.818;9.312;2023-07-13T10:11:35;5.65;;;1.20;;
18172;SDS011;9211;48.818;9.312;2023-07-13T10:14:09;6.15;;;1.17;;
18172;SDS011;9211;48.818;9.312;2023-07-13T10:16:40;4.95;;;1.35;;
18172;SDS011;9211;48.818;9.312;2023-07-13T10:19:10;4.20;;;1.10;;
18172;SDS011;9211;48.818;9.312;2023-07-13T10:21:43;5.53;;;1.40;;
18172;SDS011;9211;48.818;9.312;2023-07-13T10:24:18;3.10;;;1.10;;
18172;SDS011;9211;48.818;9.312;2023-07-13T10:26:48;5.88;;;1.38;;
18172;SDS011;9211;48.818;9.312;2023-07-13T10:29:20;3.60;;;1.10;;
18172;SDS011;9211;48.818;9.312;2023-07-13T10:31:51;4.45;;;1.30;;
18172;SDS011;9211;48.818;9.312;2023-07-13T10:34:18;3.67;;;1.20;;
18172;SDS011;9211;48.818;9.312;2023-07-13T10:36:46;5.18;;;1.13;;
18172;SDS011;9211;48.818;9.312;2023-07-13T10:39:15;3.38;;;0.98;;
18172;SDS011;9211;48.818;9.312;2023-07-13T10:41:45;3.00;;;1.08;;
18172;SDS011;9211;48.818;9.312;2023-07-13T10:44:18;4.20;;;1.30;;
18172;SDS011;9211;48.818;9.312;2023-07-13T10:46:52;3.80;;;1.15;;
18172;SDS011;9211;48.818;9.312;2023-07-13T10:49:22;5.93;;;1.20;;
18172;SDS011;9211;48.818;9.312;2023-07-13T10:51:50;4.45;;;0.98;;
18172;SDS011;9211;48.818;9.312;2023-07-13T10:54:19;4.47;;;1.20;;
18172;SDS011;9211;48.818;9.312;2023-07-13T10:56:52;2.95;;;1.20;;
18172;SDS011;9211;48.818;9.312;2023-07-13T10:59:33;4.13;;;1.02;;
18172;SDS011;9211;48.818;9.312;2023-07-13T11:02:09;4.38;;;1.20;;
18172;SDS011;9211;48.818;9.312;2023-07-13T11:04:40;5.13;;;1.10;;
18172;SDS011;9211;48.818;9.312;2023-07-13T11:07:10;4.00;;;1.02;;
18172;SDS011;9211;48.818;9.312;2023-07-13T11:09:50;4.13;;;1.10;;
18172;SDS011;9211;48.818;9.312;2023-07-13T11:12:26;5.50;;;1.00;;
18172;SDS011;9211;48.818;9.312;2023-07-13T11:15:26;2.22;;;0.90;;
18172;SDS011;9211;48.818;9.312;2023-07-13T11:17:57;2.63;;;1.08;;
18172;SDS011;9211;48.818;9.312;2023-07-13T11:20:33;4.90;;;1.13;;
18172;SDS011;9211;48.818;9.312;2023-07-13T11:25:54;3.92;;;1.20;;
18172;SDS011;9211;48.818;9.312;2023-07-13T11:28:22;4.82;;;1.13;;
18172;SDS011;9211;48.818;9.312;2023-07-13T11:33:51;4.05;;;1.05;;
18172;SDS011;9211;48.818;9.312;2023-07-13T11:36:29;5.13;;;1.30;;
18172;SDS011;9211;48.818;9.312;2023-07-13T11:39:02;3.17;;;1.00;;
18172;SDS011;9211;48.818;9.312;2023-07-13T11:41:33;2.80;;;1.10;;
18172;SDS011;9211;48.818;9.312;2023-07-13T11:44:11;5.13;;;1.50;;
18172;SDS011;9211;48.818;9.312;2023-07-13T11:46:44;4.67;;;1.20;;
18172;SDS011;9211;48.818;9.312;2023-07-13T11:49:14;3.50;;;1.08;;
18172;SDS011;9211;48.818;9.312;2023-07-13T11:51:43;4.20;;;1.05;;
18172;SDS011;9211;48.818;9.312;2023-07-13T11:54:15;6.43;;;1.20;;
18172;SDS011;9211;48.818;9.312;2023-07-13T11:56:49;5.53;;;1.20;;
18172;SDS011;9211;48.818;9.312;2023-07-13T11:59:16;5.97;;;1.17;;
18172;SDS011;9211;48.818;9.312;2023-07-13T12:01:45;6.28;;;1.13;;
18172;SDS011;9211;48.818;9.312;2023-07-13T12:04:22;3.55;;;1.13;;
18172;SDS011;9211;48.818;9.312;2023-07-13T12:06:57;4.90;;;1.10;;
18172;SDS011;9211;48.818;9.312;2023-07-13T12:09:29;5.43;;;1.30;;
18172;SDS011;9211;48.818;9.312;2023-07-13T12:11:57;2.57;;;1.00;;
18172;SDS011;9211;48.818;9.312;2023-07-13T12:14:26;2.95;;;1.10;;
18172;SDS011;9211;48.818;9.312;2023-07-13T12:16:53;2.58;;;0.93;;
18172;SDS011;9211;48.818;9.312;2023-07-13T12:19:23;4.47;;;1.15;;
18172;SDS011;9211;48.818;9.312;2023-07-13T12:21:53;4.38;;;0.95;;
18172;SDS011;9211;48.818;9.312;2023-07-13T12:24:22;7.90;;;1.10;;
18172;SDS011;9211;48.818;9.312;2023-07-13T12:26:50;4.83;;;1.33;;
18172;SDS011;9211;48.818;9.312;2023-07-13T12:29:18;5.28;;;1.00;;
18172;SDS011;9211;48.818;9.312;2023-07-13T12:31:46;4.03;;;1.10;;
18172;SDS011;9211;48.818;9.312;2023-07-13T12:34:15;5.95;;;2.85;;
18172;SDS011;9211;48.818;9.312;2023-07-13T12:36:53;4.10;;;1.30;;
18172;SDS011;9211;48.818;9.312;2023-07-13T12:39:22;4.75;;;1.20;;
18172;SDS011;9211;48.818;9.312;2023-07-13T12:41:52;6.45;;;1.38;;
18172;SDS011;9211;48.818;9.312;2023-07-13T12:44:22;3.30;;;1.20;;
18172;SDS011;9211;48.818;9.312;2023-07-13T12:46:54;5.07;;;1.38;;
18172;SDS011;9211;48.818;9.312;2023-07-13T12:49:27;4.38;;;1.17;;
18172;SDS011;9211;48.818;9.312;2023-07-13T12:51:57;2.57;;;1.10;;
18172;SDS011;9211;48.818;9.312;2023-07-13T12:54:26;6.65;;;1.25;;
18172;SDS011;9211;48.818;9.312;2023-07-13T12:56:55;2.72;;;1.00;;
18172;SDS011;9211;48.818;9.312;2023-07-13T12:59:25;3.72;;;1.15;;
18172;SDS011;9211;48.818;9.312;2023-07-13T13:01:55;5.15;;;1.23;;
18172;SDS011;9211;48.818;9.312;2023-07-13T13:04:22;3.70;;;1.20;;
18172;SDS011;9211;48.818;9.312;2023-07-13T13:07:01;3.33;;;1.20;;
18172;SDS011;9211;48.818;9.312;2023-07-13T13:09:29;3.93;;;1.27;;
18172;SDS011;9211;48.818;9.312;2023-07-13T13:11:56;5.53;;;1.30;;
18172;SDS011;9211;48.818;9.312;2023-07-13T13:14:24;2.92;;;1.33;;
18172;SDS011;9211;48.818;9.312;2023-07-13T13:16:51;3.63;;;1.20;;
18172;SDS011;9211;48.818;9.312;2023-07-13T13:19:20;4.47;;;1.10;;
18172;SDS011;9211;48.818;9.312;2023-07-13T13:21:49;3.37;;;1.20;;
18172;SDS011;9211;48.818;9.312;2023-07-13T13:24:19;4.75;;;1.35;;
18172;SDS011;9211;48.818;9.312;2023-07-13T13:26:48;5.57;;;1.17;;
18172;SDS011;9211;48.818;9.312;2023-07-13T13:29:17;3.10;;;1.03;;
18172;SDS011;9211;48.818;9.312;2023-07-13T13:31:46;2.97;;;1.20;;
18172;SDS011;9211;48.818;9.312;2023-07-13T13:34:15;4.10;;;1.20;;
18172;SDS011;9211;48.818;9.312;2023-07-13T13:36:43;5.00;;;1.25;;
18172;SDS011;9211;48.818;9.312;2023-07-13T13:39:16;4.57;;;1.17;;
18172;SDS011;9211;48.818;9.312;2023-07-13T13:41:48;6.15;;;1.27;;
18172;SDS011;9211;48.818;9.312;2023-07-13T13:44:16;4.70;;;1.20;;
18172;SDS011;9211;48.818;9.312;2023-07-13T13:46:44;4.03;;;1.30;;
18172;SDS011;9211;48.818;9.312;2023-07-13T13:49:14;3.90;;;1.17;;
18172;SDS011;9211;48.818;9.312;2023-07-13T13:51:43;5.03;;;1.23;;
18172;SDS011;9211;48.818;9.312;2023-07-13T13:54:11;4.60;;;1.25;;
18172;SDS011;9211;48.818;9.312;2023-07-13T13:56:43;4.97;;;1.20;;
18172;SDS011;9211;48.818;9.312;2023-07-13T13:59:11;5.93;;;1.17;;
18172;SDS011;9211;48.818;9.312;2023-07-13T14:01:39;3.85;;;1.10;;
18172;SDS011;9211;48.818;9.312;2023-07-13T14:04:08;4.43;;;1.17;;
18172;SDS011;9211;48.818;9.312;2023-07-13T14:06:44;4.60;;;1.20;;
18172;SDS011;9211;48.818;9.312;2023-07-13T14:09:12;4.33;;;1.20;;
18172;SDS011;9211;48.818;9.312;2023-07-13T14:11:41;4.45;;;1.20;;
18172;SDS011;9211;48.818;9.312;2023-07-13T14:16:40;5.13;;;1.13;;
18172;SDS011;9211;48.818;9.312;2023-07-13T14:19:09;4.60;;;1.10;;
18172;SDS011;9211;48.818;9.312;2023-07-13T14:21:37;3.37;;;1.20;;
18172;SDS011;9211;48.818;9.312;2023-07-13T14:24:04;5.20;;;1.20;;
18172;SDS011;9211;48.818;9.312;2023-07-13T14:26:32;4.22;;;1.20;;
18172;SDS011;9211;48.818;9.312;2023-07-13T14:29:05;3.03;;;1.13;;
18172;SDS011;9211;48.818;9.312;2023-07-13T14:31:39;5.35;;;1.20;;
18172;SDS011;9211;48.818;9.312;2023-07-13T14:34:07;6.72;;;1.15;;
18172;SDS011;9211;48.818;9.312;2023-07-13T14:36:37;3.83;;;1.42;;
18172;SDS011;9211;48.818;9.312;2023-07-13T14:39:10;4.78;;;1.10;;
18172;SDS011;9211;48.818;9.312;2023-07-13T14:41:38;4.85;;;1.15;;
18172;SDS011;9211;48.818;9.312;2023-07-13T14:44:11;5.03;;;1.27;;
18172;SDS011;9211;48.818;9.312;2023-07-13T14:46:38;3.63;;;1.30;;
18172;SDS011;9211;48.818;9.312;2023-07-13T14:49:09;4.93;;;1.10;;
18172;SDS011;9211;48.818;9.312;2023-07-13T14:51:50;4.15;;;1.40;;
18172;SDS011;9211;48.818;9.312;2023-07-13T14:54:17;4.68;;;1.38;;
18172;SDS011;9211;48.818;9.312;2023-07-13T14:56:44;8.83;;;1.67;;
18172;SDS011;9211;48.818;9.312;2023-07-13T14:59:13;3.92;;;2.60;;
18172;SDS011;9211;48.818;9.312;2023-07-13T15:01:40;4.72;;;2.25;;
18172;SDS011;9211;48.818;9.312;2023-07-13T15:04:07;5.28;;;2.20;;
18172;SDS011;9211;48.818;9.312;2023-07-13T15:09:20;2.33;;;1.00;;
18172;SDS011;9211;48.818;9.312;2023-07-13T15:11:49;4.78;;;1.20;;
18172;SDS011;9211;48.818;9.312;2023-07-13T15:14:17;4.55;;;1.10;;
18172;SDS011;9211;48.818;9.312;2023-07-13T15:16:45;4.68;;;1.10;;
18172;SDS011;9211;48.818;9.312;2023-07-13T15:19:13;7.90;;;1.20;;
18172;SDS011;9211;48.818;9.312;2023-07-13T15:21:42;3.27;;;1.20;;
18172;SDS011;9211;48.818;9.312;2023-07-13T15:24:19;3.42;;;1.00;;